createdAt,value
2022-08-05T00:01:48.531Z,52.18
2022-08-05T00:04:18.264Z,51.96
2022-08-05T00:06:47.244Z,52.03
2022-08-05T00:09:15.972Z,51.79
2022-08-05T00:11:49.514Z,51.81
2022-08-05T00:14:28.903Z,51.63
2022-08-05T00:16:57.930Z,51.78
2022-08-05T00:19:33.595Z,51.97
2022-08-05T00:22:11.203Z,51.78
2022-08-05T00:24:46.976Z,51.89
2022-08-05T00:27:23.140Z,52.00
2022-08-05T00:30:05.651Z,52.03
2022-08-05T00:32:39.571Z,52.01
2022-08-05T00:35:08.819Z,51.95
2022-08-05T00:37:53.145Z,52.18
2022-08-05T00:40:28.201Z,52.00
2022-08-05T00:42:59.515Z,52.09
2022-08-05T00:45:42.884Z,52.14
2022-08-05T00:48:14.617Z,52.17
2022-08-05T00:50:46.083Z,51.96
2022-08-05T00:54:00.618Z,52.00
2022-08-05T00:56:09.645Z,52.09
2022-08-05T00:58:38.141Z,52.06
2022-08-05T01:01:08.945Z,51.93
2022-08-05T01:03:39.580Z,52.11
2022-08-05T01:06:14.204Z,52.12
2022-08-05T01:08:44.636Z,52.14
2022-08-05T01:11:33.503Z,52.14
2022-08-05T01:14:27.915Z,52.06
2022-08-05T01:17:06.305Z,52.11
2022-08-05T01:20:03.989Z,52.15
2022-08-05T01:22:54.043Z,52.29
2022-08-05T01:25:55.680Z,52.13
2022-08-05T01:28:44.360Z,52.24
2022-08-05T01:31:30.167Z,52.20
2022-08-05T01:34:09.960Z,52.24
2022-08-05T01:36:54.009Z,52.38
2022-08-05T01:39:36.854Z,52.50
2022-08-05T01:42:13.829Z,52.52
2022-08-05T01:44:45.665Z,52.44
2022-08-05T01:47:23.945Z,52.60
2022-08-05T01:50:01.463Z,52.74
2022-08-05T01:52:32.300Z,52.62
2022-08-05T01:55:06.771Z,52.68
2022-08-05T01:58:09.945Z,52.55
2022-08-05T02:00:31.002Z,52.53
2022-08-05T02:03:24.437Z,52.63
2022-08-05T02:05:57.864Z,52.58
2022-08-05T02:08:31.036Z,52.77
2022-08-05T02:11:11.741Z,52.93
2022-08-05T02:14:04.925Z,52.98
2022-08-05T02:16:55.448Z,52.94
2022-08-05T02:19:42.696Z,52.91
2022-08-05T02:22:31.729Z,53.01
2022-08-05T02:25:13.421Z,53.14
2022-08-05T02:27:58.927Z,53.02
2022-08-05T02:30:35.609Z,53.18
2022-08-05T02:33:05.056Z,53.32
2022-08-05T02:35:37.659Z,53.26
2022-08-05T02:38:19.314Z,53.27
2022-08-05T02:40:47.662Z,53.32
2022-08-05T02:43:16.958Z,53.28
2022-08-05T02:45:52.501Z,53.29
2022-08-05T02:48:29.042Z,53.55
2022-08-05T02:51:00.455Z,53.61
2022-08-05T02:53:38.961Z,53.81
2022-08-05T02:56:15.926Z,53.99
2022-08-05T02:58:51.503Z,53.95
2022-08-05T03:01:24.869Z,54.02
2022-08-05T03:04:11.753Z,54.19
2022-08-05T03:06:54.185Z,54.40
2022-08-05T03:09:38.290Z,54.59
2022-08-05T03:12:29.558Z,54.77
2022-08-05T03:14:58.048Z,54.97
2022-08-05T03:17:26.438Z,55.07
2022-08-05T03:19:55.160Z,55.14
2022-08-05T03:22:32.451Z,55.29
2022-08-05T03:25:33.974Z,55.34
2022-08-05T03:27:59.179Z,55.39
2022-08-05T03:30:33.587Z,55.49
2022-08-05T03:33:03.347Z,55.50
2022-08-05T03:35:33.754Z,55.52
2022-08-05T03:38:11.853Z,55.99
2022-08-05T03:40:45.168Z,56.16
2022-08-05T03:44:08.816Z,56.42
2022-08-05T03:46:05.316Z,56.70
2022-08-05T03:48:36.740Z,56.57
2022-08-05T03:52:36.466Z,56.77
2022-08-05T03:55:52.963Z,56.56
2022-08-05T03:57:42.042Z,57.02
2022-08-05T04:00:15.858Z,57.37
2022-08-05T04:02:58.105Z,57.34
2022-08-05T04:05:34.432Z,57.79
2022-08-05T04:08:14.366Z,58.02
2022-08-05T04:10:53.570Z,58.15
2022-08-05T04:13:22.910Z,58.21
2022-08-05T04:16:02.956Z,58.43
2022-08-05T04:18:34.493Z,58.31
2022-08-05T04:21:06.083Z,58.20
2022-08-05T04:23:58.426Z,58.08
2022-08-05T04:26:23.793Z,57.83
2022-08-05T04:28:52.673Z,57.80
2022-08-05T04:31:20.641Z,57.62
2022-08-05T04:34:17.734Z,57.43
2022-08-05T04:36:49.721Z,57.20
2022-08-05T04:39:21.754Z,56.70
2022-08-05T04:41:51.156Z,56.30
2022-08-05T04:44:29.609Z,55.89
2022-08-05T04:46:59.589Z,55.54
2022-08-05T04:49:38.465Z,55.25
2022-08-05T04:52:16.619Z,54.92
2022-08-05T04:54:46.872Z,54.27
2022-08-05T04:57:17.441Z,54.24
2022-08-05T04:59:45.336Z,53.96
2022-08-05T05:02:41.346Z,53.65
2022-08-05T05:05:16.857Z,53.53
2022-08-05T05:08:01.460Z,53.52
2022-08-05T05:10:39.076Z,53.50
2022-08-05T05:13:14.065Z,53.33
2022-08-05T05:15:59.511Z,53.33
2022-08-05T05:18:33.770Z,53.45
2022-08-05T05:21:03.631Z,53.26
2022-08-05T05:24:02.168Z,53.23
2022-08-05T05:26:20.120Z,53.23
2022-08-05T05:28:56.994Z,53.39
2022-08-05T05:31:25.070Z,53.05
2022-08-05T05:33:59.203Z,52.97
2022-08-05T05:36:30.653Z,52.78
2022-08-05T05:39:01.003Z,52.63
2022-08-05T05:41:40.631Z,52.59
2022-08-05T05:44:36.811Z,52.42
2022-08-05T05:47:04.349Z,52.46
2022-08-05T05:49:44.070Z,52.29
2022-08-05T05:52:29.988Z,52.36
2022-08-05T05:55:16.574Z,52.30
2022-08-05T05:57:52.641Z,52.19
2022-08-05T06:00:29.567Z,52.14
2022-08-05T06:03:02.074Z,52.19
2022-08-05T06:05:29.968Z,51.94
2022-08-05T06:08:01.759Z,51.80
2022-08-05T06:10:34.480Z,51.89
2022-08-05T06:13:05.357Z,51.84
2022-08-05T06:16:28.320Z,51.70
2022-08-05T06:18:31.427Z,51.69
2022-08-05T06:21:00.394Z,51.49
2022-08-05T06:23:32.219Z,51.26
2022-08-05T06:26:21.614Z,51.12
2022-08-05T06:28:52.117Z,50.66
2022-08-05T06:31:22.024Z,50.66
2022-08-05T06:34:07.297Z,49.78
2022-08-05T06:36:57.366Z,49.30
2022-08-05T06:39:27.024Z,48.98
2022-08-05T06:42:02.014Z,48.82
2022-08-05T06:44:32.388Z,48.75
2022-08-05T06:47:02.243Z,47.90
2022-08-05T06:50:01.385Z,47.12
2022-08-05T06:52:38.242Z,47.12
2022-08-05T06:55:07.093Z,47.14
2022-08-05T06:57:58.221Z,47.08
2022-08-05T07:00:24.896Z,46.85
2022-08-05T07:03:02.496Z,46.26
2022-08-05T07:05:37.727Z,45.79
2022-08-05T07:08:10.967Z,45.82
2022-08-05T07:10:52.930Z,44.93
2022-08-05T07:13:57.212Z,45.00
2022-08-05T07:18:02.279Z,43.81
2022-08-05T07:22:28.184Z,42.54
2022-08-05T07:25:22.752Z,41.70
2022-08-05T07:27:58.374Z,40.84
2022-08-05T07:30:34.053Z,40.36
2022-08-05T07:33:05.092Z,39.62
2022-08-05T07:36:04.784Z,39.12
2022-08-05T07:38:34.149Z,38.90
2022-08-05T07:42:06.892Z,38.82
2022-08-05T07:43:59.943Z,38.40
2022-08-05T07:46:30.771Z,37.85
2022-08-05T07:49:05.469Z,37.17
2022-08-05T07:51:48.901Z,36.61
2022-08-05T07:54:31.287Z,36.34
2022-08-05T07:57:17.661Z,36.00
2022-08-05T07:59:51.211Z,35.36
2022-08-05T08:02:30.720Z,35.12
2022-08-05T08:05:00.025Z,34.71
2022-08-05T08:07:28.977Z,34.00
2022-08-05T08:10:07.599Z,33.99
2022-08-05T08:12:49.812Z,33.33
2022-08-05T08:15:18.443Z,33.35
2022-08-05T08:18:13.899Z,33.37
2022-08-05T08:21:02.044Z,33.50
2022-08-05T08:24:02.126Z,32.67
2022-08-05T08:26:29.560Z,32.45
2022-08-05T08:29:21.883Z,32.40
2022-08-05T08:31:49.003Z,31.62
2022-08-05T08:34:18.764Z,31.46
2022-08-05T08:37:01.731Z,31.24
2022-08-05T08:39:37.466Z,30.76
2022-08-05T08:42:15.248Z,30.48
2022-08-05T08:45:19.498Z,30.42
2022-08-05T08:48:06.776Z,30.25
2022-08-05T08:51:03.599Z,30.32
2022-08-05T08:53:28.872Z,29.75
2022-08-05T08:56:04.250Z,29.79
2022-08-05T08:58:37.593Z,29.65
2022-08-05T09:01:17.130Z,29.69
2022-08-05T09:03:55.596Z,30.05
2022-08-05T09:06:29.620Z,29.35
2022-08-05T09:09:01.085Z,28.57
2022-08-05T09:11:53.637Z,28.03
2022-08-05T09:14:56.692Z,28.04
2022-08-05T09:17:41.295Z,27.58
2022-08-05T09:20:02.558Z,27.63
2022-08-05T09:23:19.891Z,27.32
2022-08-05T09:26:01.505Z,27.57
2022-08-05T09:28:34.264Z,26.96
2022-08-05T09:31:23.417Z,26.56
2022-08-05T09:34:09.644Z,26.25
2022-08-05T09:36:54.679Z,25.60
2022-08-05T09:39:39.221Z,25.38
2022-08-05T09:42:23.992Z,25.37
2022-08-05T09:44:57.382Z,25.42
2022-08-05T09:47:48.002Z,25.16
2022-08-05T09:50:38.728Z,25.32
2022-08-05T09:53:08.817Z,25.04
2022-08-05T09:55:58.644Z,24.98
2022-08-05T09:58:26.012Z,24.84
2022-08-05T10:01:14.601Z,24.54
2022-08-05T10:04:00.667Z,24.65
2022-08-05T10:06:29.285Z,24.41
2022-08-05T10:09:27.650Z,24.09
2022-08-05T10:12:30.414Z,24.11
2022-08-05T10:15:36.787Z,23.82
2022-08-05T10:18:22.568Z,23.81
2022-08-05T10:20:55.523Z,24.40
2022-08-05T10:23:55.567Z,24.94
2022-08-05T10:26:17.476Z,25.71
2022-08-05T10:28:46.805Z,25.91
2022-08-05T10:32:49.009Z,25.85
2022-08-05T10:34:07.129Z,25.88
2022-08-05T10:36:41.630Z,26.30
2022-08-05T10:39:24.293Z,26.74
2022-08-05T10:42:11.971Z,26.80
2022-08-05T10:44:44.437Z,26.71
2022-08-05T10:47:26.531Z,26.76
2022-08-05T10:50:32.199Z,26.61
2022-08-05T10:53:04.154Z,26.75
2022-08-05T10:55:38.594Z,27.10
2022-08-05T10:58:20.738Z,26.90
2022-08-05T11:00:55.330Z,27.06
2022-08-05T11:03:30.992Z,27.36
2022-08-05T11:06:15.888Z,27.47
2022-08-05T11:09:16.911Z,27.32
2022-08-05T11:11:52.212Z,27.35
2022-08-05T11:17:58.829Z,27.63
2022-08-05T11:20:39.164Z,27.58
2022-08-05T11:24:03.876Z,27.45
2022-08-05T11:26:43.132Z,27.52
2022-08-05T11:29:36.410Z,27.21
2022-08-05T11:32:29.827Z,27.01
2022-08-05T11:34:58.074Z,27.04
2022-08-05T11:38:26.134Z,26.94
2022-08-05T11:41:34.206Z,26.51
2022-08-05T11:44:12.772Z,26.25
2022-08-05T11:47:11.980Z,25.58
2022-08-05T11:49:49.763Z,25.73
2022-08-05T11:52:29.270Z,26.13
2022-08-05T11:55:07.465Z,26.23
2022-08-05T11:58:08.351Z,26.03
2022-08-05T12:00:31.856Z,25.94
2022-08-05T12:03:28.818Z,25.87
2022-08-05T12:06:03.205Z,25.87
2022-08-05T12:08:49.843Z,24.79
2022-08-05T12:11:28.130Z,24.56
2022-08-05T12:14:04.027Z,24.41
2022-08-05T12:16:52.219Z,24.32
2022-08-05T12:20:27.202Z,24.35
2022-08-05T12:22:12.627Z,24.38
2022-08-05T12:24:49.385Z,24.57
2022-08-05T12:27:33.042Z,24.13
2022-08-05T12:30:15.313Z,24.54
2022-08-05T12:32:50.348Z,24.15
2022-08-05T12:35:21.673Z,23.92
2022-08-05T12:37:50.300Z,23.78
2022-08-05T12:40:26.704Z,24.22
2022-08-05T12:42:56.634Z,24.15
2022-08-05T12:45:36.963Z,24.22
2022-08-05T12:48:26.976Z,24.42
2022-08-05T12:51:21.809Z,24.53
2022-08-05T12:54:04.904Z,24.65
2022-08-05T12:56:51.009Z,24.84
2022-08-05T13:00:08.300Z,24.46
2022-08-05T13:02:27.231Z,24.30
2022-08-05T13:04:58.764Z,24.56
2022-08-05T13:10:19.611Z,25.14
2022-08-05T13:12:57.773Z,25.03
2022-08-05T13:15:41.076Z,25.38
2022-08-05T13:18:09.678Z,25.29
2022-08-05T13:20:40.417Z,25.09
2022-08-05T13:23:08.508Z,25.18
2022-08-05T13:25:51.670Z,25.11
2022-08-05T13:28:24.197Z,25.17
2022-08-05T13:30:53.423Z,25.32
2022-08-05T13:34:25.161Z,25.14
2022-08-05T13:36:10.357Z,25.34
2022-08-05T13:38:41.960Z,25.40
2022-08-05T13:41:11.754Z,25.00
2022-08-05T13:43:44.162Z,25.11
2022-08-05T13:46:30.798Z,25.52
2022-08-05T13:49:10.555Z,25.45
2022-08-05T13:51:45.755Z,25.09
2022-08-05T13:54:21.052Z,25.46
2022-08-05T13:56:53.539Z,26.03
2022-08-05T13:59:25.089Z,25.80
2022-08-05T14:02:00.331Z,25.49
2022-08-05T14:04:56.133Z,25.69
2022-08-05T14:07:59.657Z,25.60
2022-08-05T14:10:31.136Z,25.72
2022-08-05T14:12:59.960Z,26.02
2022-08-05T14:16:07.267Z,26.22
2022-08-05T14:18:23.011Z,26.36
2022-08-05T14:20:54.814Z,26.67
2022-08-05T14:23:25.762Z,26.58
2022-08-05T14:25:58.204Z,26.76
2022-08-05T14:28:29.302Z,26.65
2022-08-05T14:30:58.686Z,26.66
2022-08-05T14:33:26.868Z,26.58
2022-08-05T14:35:55.012Z,26.48
2022-08-05T14:38:31.961Z,26.43
2022-08-05T14:41:07.219Z,26.49
2022-08-05T14:43:58.911Z,26.55
2022-08-05T14:46:36.145Z,27.62
2022-08-05T14:49:07.632Z,27.57
2022-08-05T14:51:38.392Z,27.51
2022-08-05T14:54:27.982Z,27.67
2022-08-05T14:56:59.494Z,27.52
2022-08-05T14:59:29.599Z,27.97
2022-08-05T15:02:24.358Z,27.88
2022-08-05T15:04:52.855Z,27.79
2022-08-05T15:08:08.899Z,27.73
2022-08-05T15:10:09.785Z,27.71
2022-08-05T15:12:57.988Z,27.37
2022-08-05T15:15:54.065Z,27.71
2022-08-05T15:18:17.245Z,27.26
2022-08-05T15:20:46.025Z,27.45
2022-08-05T15:23:14.373Z,27.29
2022-08-05T15:25:52.971Z,27.42
2022-08-05T15:28:27.148Z,27.24
2022-08-05T15:30:56.221Z,27.08
2022-08-05T15:34:18.621Z,26.89
2022-08-05T15:36:17.214Z,27.01
2022-08-05T15:41:01.464Z,26.95
2022-08-05T15:41:55.984Z,27.57
2022-08-05T15:44:27.868Z,27.40
2022-08-05T15:46:55.975Z,27.27
2022-08-05T15:49:53.726Z,27.37
2022-08-05T15:52:16.369Z,27.75
2022-08-05T15:54:45.349Z,27.94
2022-08-05T15:57:14.970Z,28.15
2022-08-05T15:59:44.420Z,28.42
2022-08-05T16:02:14.757Z,28.78
2022-08-05T16:04:48.678Z,29.08
2022-08-05T16:07:16.610Z,29.76
2022-08-05T16:09:46.071Z,32.39
2022-08-05T16:12:15.157Z,33.81
2022-08-05T16:14:43.891Z,32.96
2022-08-05T16:17:12.488Z,32.87
2022-08-05T16:20:04.390Z,33.57
2022-08-05T16:22:34.403Z,34.40
2022-08-05T16:25:05.263Z,34.58
2022-08-05T16:28:00.388Z,34.81
2022-08-05T16:30:29.158Z,35.12
2022-08-05T16:33:01.071Z,35.34
2022-08-05T16:35:32.055Z,35.65
2022-08-05T16:38:23.706Z,36.07
2022-08-05T16:40:55.288Z,36.44
2022-08-05T16:43:31.787Z,36.57
2022-08-05T16:46:13.119Z,37.80
2022-08-05T16:48:51.151Z,38.39
2022-08-05T16:51:18.977Z,38.54
2022-08-05T16:54:04.147Z,38.83
2022-08-05T16:56:37.041Z,38.72
2022-08-05T16:59:10.349Z,38.67
2022-08-05T17:01:54.043Z,38.59
2022-08-05T17:04:27.321Z,38.69
2022-08-05T17:07:03.180Z,38.87
2022-08-05T17:09:57.388Z,39.28
2022-08-05T17:12:50.319Z,39.26
2022-08-05T17:15:15.457Z,39.63
2022-08-05T17:17:58.654Z,40.23
2022-08-05T17:20:50.967Z,40.36
2022-08-05T17:23:42.018Z,41.01
2022-08-05T17:26:07.120Z,41.06
2022-08-05T17:28:37.318Z,41.65
2022-08-05T17:31:24.430Z,41.93
2022-08-05T17:34:00.267Z,42.52
2022-08-05T17:36:33.693Z,42.89
2022-08-05T17:39:05.097Z,44.06
2022-08-05T17:42:19.961Z,44.77
2022-08-05T17:44:40.581Z,45.50
2022-08-05T17:47:23.083Z,46.03
2022-08-05T17:50:03.650Z,47.20
2022-08-05T17:52:33.497Z,47.50
2022-08-05T17:55:03.022Z,47.85
2022-08-05T17:57:31.361Z,48.07
2022-08-05T18:00:04.972Z,48.65
2022-08-05T18:02:35.094Z,48.91
2022-08-05T18:05:07.640Z,48.89
2022-08-05T18:07:41.796Z,49.09
2022-08-05T18:10:20.454Z,49.33
2022-08-05T18:12:49.895Z,49.73
2022-08-05T18:15:18.115Z,50.38
2022-08-05T18:17:59.723Z,50.41
2022-08-05T18:20:32.724Z,50.70
2022-08-05T18:23:11.883Z,51.17
2022-08-05T18:25:44.086Z,51.23
2022-08-05T18:28:16.661Z,51.55
2022-08-05T18:30:51.301Z,51.88
2022-08-05T18:33:23.000Z,51.98
2022-08-05T18:36:03.320Z,52.29
2022-08-05T18:38:37.561Z,52.42
2022-08-05T18:41:53.561Z,52.57
2022-08-05T18:43:57.458Z,52.98
2022-08-05T18:46:36.233Z,53.29
2022-08-05T18:49:30.431Z,53.30
2022-08-05T18:52:18.748Z,53.61
2022-08-05T18:55:04.820Z,53.94
2022-08-05T18:57:42.912Z,54.09
2022-08-05T19:00:20.326Z,54.09
2022-08-05T19:02:48.721Z,54.51
2022-08-05T19:06:13.417Z,54.73
2022-08-05T19:08:13.378Z,54.87
2022-08-05T19:10:41.751Z,54.76
2022-08-05T19:13:12.369Z,55.05
2022-08-05T19:15:59.020Z,55.06
2022-08-05T19:18:32.130Z,55.32
2022-08-05T19:20:59.932Z,55.79
2022-08-05T19:24:07.210Z,55.87
2022-08-05T19:26:17.551Z,55.52
2022-08-05T19:28:46.839Z,55.89
2022-08-05T19:31:17.922Z,55.82
2022-08-05T19:33:56.124Z,55.96
2022-08-05T19:36:26.139Z,55.96
2022-08-05T19:39:00.555Z,56.02
2022-08-05T19:41:34.672Z,56.15
2022-08-05T19:44:19.245Z,56.07
2022-08-05T19:46:47.389Z,56.17
2022-08-05T19:49:18.839Z,56.23
2022-08-05T19:52:08.266Z,56.65
2022-08-05T19:54:35.787Z,56.47
2022-08-05T19:57:12.449Z,56.92
2022-08-05T19:59:56.736Z,56.65
2022-08-05T20:02:35.873Z,56.83
2022-08-05T20:05:06.157Z,56.99
2022-08-05T20:07:48.160Z,56.96
2022-08-05T20:10:17.528Z,56.96
2022-08-05T20:12:50.831Z,57.34
2022-08-05T20:15:23.261Z,57.37
2022-08-05T20:18:33.374Z,57.47
2022-08-05T20:20:58.258Z,57.66
2022-08-05T20:23:39.505Z,58.16
2022-08-05T20:26:23.349Z,58.22
2022-08-05T20:28:57.077Z,58.88
2022-08-05T20:31:36.773Z,58.57
2022-08-05T20:34:12.548Z,59.12
2022-08-05T20:36:43.445Z,59.17
2022-08-05T20:39:16.093Z,59.57
2022-08-05T20:41:47.978Z,59.80
2022-08-05T20:44:29.478Z,60.30
2022-08-05T20:47:04.575Z,60.23
2022-08-05T20:49:39.681Z,60.63
2022-08-05T20:52:08.991Z,60.96
2022-08-05T20:54:43.541Z,61.05
2022-08-05T20:57:44.135Z,61.15
2022-08-05T21:00:40.431Z,61.46
2022-08-05T21:03:06.350Z,61.86
2022-08-05T21:05:53.615Z,61.16
2022-08-05T21:08:41.285Z,56.80
2022-08-05T21:11:12.425Z,57.34
2022-08-05T21:13:47.821Z,58.39
2022-08-05T21:16:29.779Z,59.24
2022-08-05T21:19:01.992Z,60.26
2022-08-05T21:21:43.730Z,61.21
2022-08-05T21:24:15.351Z,61.77
2022-08-05T21:26:53.210Z,59.33
2022-08-05T21:29:26.527Z,58.34
2022-08-05T21:32:04.210Z,58.75
2022-08-05T21:34:32.924Z,59.99
2022-08-05T21:37:05.030Z,60.82
2022-08-05T21:39:34.781Z,61.84
2022-08-05T21:42:30.516Z,62.85
2022-08-05T21:44:57.561Z,62.18
2022-08-05T21:47:54.753Z,57.14
2022-08-05T21:50:15.144Z,56.88
2022-08-05T21:52:47.385Z,57.92
2022-08-05T21:55:15.550Z,59.36
2022-08-05T21:57:45.658Z,60.31
2022-08-05T22:00:15.032Z,61.15
2022-08-05T22:02:43.884Z,63.06
2022-08-05T22:05:14.244Z,61.90
2022-08-05T22:07:59.105Z,57.90
2022-08-05T22:10:28.349Z,57.58
2022-08-05T22:12:59.033Z,58.62
2022-08-05T22:15:57.209Z,60.31
2022-08-05T22:18:27.234Z,61.26
2022-08-05T22:20:55.869Z,63.48
2022-08-05T22:24:01.993Z,60.49
2022-08-05T22:26:50.502Z,58.06
2022-08-05T22:29:26.774Z,58.36
2022-08-05T22:32:55.066Z,60.19
2022-08-05T22:35:15.203Z,61.43
2022-08-05T22:37:59.231Z,63.04
2022-08-05T22:40:31.506Z,61.87
2022-08-05T22:42:59.706Z,57.54
2022-08-05T22:45:27.839Z,57.30
2022-08-05T22:48:01.625Z,58.97
2022-08-05T22:50:30.035Z,60.58
2022-08-05T22:52:58.080Z,61.32
2022-08-05T22:55:26.255Z,63.75
2022-08-05T22:57:55.102Z,62.29
2022-08-05T23:00:23.930Z,58.09
2022-08-05T23:03:57.873Z,57.44
2022-08-05T23:06:27.475Z,59.12
2022-08-05T23:08:56.710Z,60.20
2022-08-05T23:11:46.582Z,61.80
2022-08-05T23:14:22.726Z,62.80
2022-08-05T23:17:24.388Z,61.34
2022-08-05T23:20:02.369Z,57.57
2022-08-05T23:22:32.304Z,57.37
2022-08-05T23:25:00.990Z,58.61
2022-08-05T23:27:42.205Z,60.41
2022-08-05T23:30:11.163Z,61.22
2022-08-05T23:32:45.058Z,63.03
2022-08-05T23:35:13.246Z,61.56
2022-08-05T23:37:41.381Z,56.93
2022-08-05T23:40:13.667Z,56.48
2022-08-05T23:42:41.835Z,58.28
2022-08-05T23:45:15.955Z,59.56
2022-08-05T23:47:47.968Z,60.87
2022-08-05T23:50:16.990Z,61.23
2022-08-05T23:52:49.796Z,61.92
2022-08-05T23:55:19.299Z,63.63
2022-08-05T23:57:51.058Z,61.49
